Time;durP1;ratioP1;P1;durP2;ratioP2;P2;SDS_P1;SDS_P2;PMS_P1;PMS_P2;Temp;Humidity;BMP_temperature;BMP_pressure;BME280_temperature;BME280_humidity;BME280_pressure;Samples;Min_cycle;Max_cycle;Signal;HPM_P1;HPM_P2
2021/05/29 00:01:26;;;;;;;10.33;6.90;;;;;;;;;;765653;183;905256;-80
2021/05/29 00:03:52;;;;;;;10.25;6.93;;;;;;;;;;772927;182;911132;-79
2021/05/29 00:06:18;;;;;;;7.53;5.90;;;;;;;;;;765213;183;880691;-78
2021/05/29 00:08:44;;;;;;;7.43;6.07;;;;;;;;;;766695;180;919776;-79
2021/05/29 00:11:10;;;;;;;7.80;6.70;;;;;;;;;;765163;183;918086;-79
2021/05/29 00:13:37;;;;;;;8.93;6.30;;;;;;;;;;763437;183;917522;-78
2021/05/29 00:16:02;;;;;;;8.07;6.07;;;;;;;;;;764473;183;843790;-77
2021/05/29 00:18:27;;;;;;;8.90;6.03;;;;;;;;;;764777;180;920078;-78
2021/05/29 00:20:53;;;;;;;8.20;5.77;;;;;;;;;;769991;183;918546;-79
2021/05/29 00:23:19;;;;;;;6.95;5.45;;;;;;;;;;764448;183;918571;-79
2021/05/29 00:25:45;;;;;;;7.33;5.40;;;;;;;;;;765451;183;918346;-78
2021/05/29 00:28:11;;;;;;;8.10;5.30;;;;;;;;;;771130;181;918871;-78
2021/05/29 00:30:38;;;;;;;8.93;6.50;;;;;;;;;;767155;183;917935;-78
2021/05/29 00:33:04;;;;;;;7.87;6.68;;;;;;;;;;767681;182;917988;-78
2021/05/29 00:35:30;;;;;;;8.67;6.97;;;;;;;;;;771041;183;815737;-78
2021/05/29 00:37:55;;;;;;;6.60;5.23;;;;;;;;;;763740;183;768709;-77
2021/05/29 00:40:21;;;;;;;14.83;6.33;;;;;;;;;;764503;183;918202;-77
2021/05/29 00:42:47;;;;;;;8.70;6.57;;;;;;;;;;765194;183;1144194;-77
2021/05/29 00:45:13;;;;;;;8.57;5.80;;;;;;;;;;772170;183;917010;-78
2021/05/29 00:47:39;;;;;;;7.77;6.00;;;;;;;;;;763041;183;813233;-78
2021/05/29 00:50:05;;;;;;;7.97;5.50;;;;;;;;;;767362;183;817033;-78
2021/05/29 00:52:31;;;;;;;8.20;6.30;;;;;;;;;;772003;183;918457;-79
2021/05/29 00:54:57;;;;;;;8.00;6.50;;;;;;;;;;766604;181;888545;-79
2021/05/29 00:57:22;;;;;;;8.93;5.83;;;;;;;;;;765316;183;938274;-79
2021/05/29 00:59:48;;;;;;;8.00;6.70;;;;;;;;;;770832;183;1022382;-78
2021/05/29 01:02:14;;;;;;;10.40;7.00;;;;;;;;;;764870;183;917591;-78
2021/05/29 01:04:41;;;;;;;9.00;6.00;;;;;;;;;;765603;183;873563;-79
2021/05/29 01:07:07;;;;;;;9.20;6.97;;;;;;;;;;763756;183;919517;-78
2021/05/29 01:09:32;;;;;;;10.20;5.60;;;;;;;;;;768994;183;918325;-79
2021/05/29 01:11:58;;;;;;;7.10;6.00;;;;;;;;;;766282;183;885953;-79
2021/05/29 01:14:25;;;;;;;7.80;6.13;;;;;;;;;;763559;183;939854;-78
2021/05/29 01:16:56;;;;;;;9.50;7.07;;;;;;;;;;769592;183;919651;-78
2021/05/29 01:19:22;;;;;;;17.63;7.13;;;;;;;;;;767436;183;915481;-76
2021/05/29 01:21:47;;;;;;;8.20;6.30;;;;;;;;;;766270;183;918659;-77
2021/05/29 01:24:13;;;;;;;7.47;6.57;;;;;;;;;;765237;183;921412;-77
2021/05/29 01:26:39;;;;;;;8.60;6.57;;;;;;;;;;763854;180;918754;-78
2021/05/29 01:29:05;;;;;;;8.20;6.27;;;;;;;;;;754143;185;714451;-78
2021/05/29 01:31:32;;;;;;;10.43;6.83;;;;;;;;;;747130;184;918521;-78
2021/05/29 01:33:57;;;;;;;9.35;5.90;;;;;;;;;;769631;181;918214;-78
2021/05/29 01:36:23;;;;;;;7.43;6.10;;;;;;;;;;762854;183;925368;-78
2021/05/29 01:38:48;;;;;;;10.00;6.77;;;;;;;;;;765321;182;918847;-78
2021/05/29 01:41:14;;;;;;;7.60;6.40;;;;;;;;;;765617;182;924738;-78
2021/05/29 01:43:41;;;;;;;8.30;6.10;;;;;;;;;;764914;183;914465;-78
2021/05/29 01:46:07;;;;;;;8.20;6.20;;;;;;;;;;764939;183;915747;-78
2021/05/29 01:48:37;;;;;;;10.30;6.80;;;;;;;;;;770169;183;929713;-78
2021/05/29 01:51:00;;;;;;;8.57;6.20;;;;;;;;;;771412;183;814270;-78
2021/05/29 01:53:26;;;;;;;9.47;6.83;;;;;;;;;;761732;183;1430771;-79
2021/05/29 01:55:51;;;;;;;9.67;7.00;;;;;;;;;;769419;183;884998;-80
2021/05/29 01:58:17;;;;;;;10.77;6.87;;;;;;;;;;768456;183;918481;-78
2021/05/29 02:00:43;;;;;;;9.50;7.10;;;;;;;;;;765359;183;922588;-79
2021/05/29 02:03:09;;;;;;;9.00;6.87;;;;;;;;;;763496;183;914933;-78
2021/05/29 02:05:35;;;;;;;8.60;6.60;;;;;;;;;;769322;183;915789;-79
2021/05/29 02:08:01;;;;;;;8.87;6.80;;;;;;;;;;767464;183;811951;-78
2021/05/29 02:10:27;;;;;;;7.93;6.78;;;;;;;;;;765460;180;912179;-78
2021/05/29 02:12:53;;;;;;;10.57;7.47;;;;;;;;;;767534;183;919211;-78
2021/05/29 02:15:19;;;;;;;9.20;6.90;;;;;;;;;;764708;183;919696;-79
2021/05/29 02:17:44;;;;;;;7.23;6.20;;;;;;;;;;766221;183;917437;-79
2021/05/29 02:20:11;;;;;;;9.20;7.10;;;;;;;;;;763591;183;921861;-79
2021/05/29 02:22:37;;;;;;;9.03;6.23;;;;;;;;;;766680;183;806970;-79
2021/05/29 02:25:02;;;;;;;9.07;6.30;;;;;;;;;;764490;183;951318;-78
2021/05/29 02:27:28;;;;;;;12.90;6.70;;;;;;;;;;766295;183;916280;-78
2021/05/29 02:29:54;;;;;;;9.80;7.07;;;;;;;;;;770147;183;920626;-79
2021/05/29 02:32:20;;;;;;;8.87;6.90;;;;;;;;;;763204;183;880752;-82
2021/05/29 02:34:46;;;;;;;12.80;7.80;;;;;;;;;;759002;183;1576396;-81
2021/05/29 02:37:12;;;;;;;10.23;6.63;;;;;;;;;;771298;183;919257;-80
2021/05/29 02:39:38;;;;;;;8.57;6.20;;;;;;;;;;762252;183;917416;-80
2021/05/29 02:42:04;;;;;;;6.18;5.57;;;;;;;;;;763104;183;1020946;-79
2021/05/29 02:44:29;;;;;;;8.00;6.33;;;;;;;;;;768918;183;918832;-79
2021/05/29 02:46:55;;;;;;;10.40;6.60;;;;;;;;;;764022;183;918723;-78
2021/05/29 02:49:21;;;;;;;8.60;6.43;;;;;;;;;;764255;183;919514;-78
2021/05/29 02:51:47;;;;;;;7.97;7.17;;;;;;;;;;765764;181;918639;-75
2021/05/29 02:54:13;;;;;;;10.90;7.30;;;;;;;;;;774801;183;623681;-74
2021/05/29 02:56:39;;;;;;;9.55;7.65;;;;;;;;;;771248;183;628479;-71
2021/05/29 02:59:05;;;;;;;9.43;6.80;;;;;;;;;;769731;183;816832;-73
2021/05/29 03:01:30;;;;;;;9.17;7.30;;;;;;;;;;761946;183;919601;-73
2021/05/29 03:03:56;;;;;;;8.57;6.80;;;;;;;;;;764811;183;919606;-74
2021/05/29 03:06:22;;;;;;;14.37;8.80;;;;;;;;;;768299;183;883727;-75
2021/05/29 03:08:48;;;;;;;12.03;7.77;;;;;;;;;;772543;183;713490;-75
2021/05/29 03:11:14;;;;;;;9.00;7.37;;;;;;;;;;766647;183;1083788;-74
2021/05/29 03:13:40;;;;;;;8.83;6.67;;;;;;;;;;767592;180;918219;-73
2021/05/29 03:16:05;;;;;;;10.47;8.27;;;;;;;;;;769636;183;919584;-73
2021/05/29 03:18:31;;;;;;;8.93;7.07;;;;;;;;;;762604;183;919601;-73
2021/05/29 03:20:57;;;;;;;9.30;7.53;;;;;;;;;;765153;183;919183;-74
2021/05/29 03:23:24;;;;;;;9.10;7.63;;;;;;;;;;766001;183;919159;-74
2021/05/29 03:25:49;;;;;;;10.93;8.97;;;;;;;;;;773086;183;815999;-75
2021/05/29 03:28:15;;;;;;;11.90;8.10;;;;;;;;;;763076;183;919530;-74
2021/05/29 03:30:42;;;;;;;12.90;8.53;;;;;;;;;;762710;183;919842;-75
2021/05/29 03:33:06;;;;;;;12.50;9.10;;;;;;;;;;769249;183;816219;-76
2021/05/29 03:35:32;;;;;;;12.30;8.73;;;;;;;;;;765124;183;917727;-76
2021/05/29 03:37:58;;;;;;;14.27;9.07;;;;;;;;;;765309;183;918675;-75
2021/05/29 03:40:24;;;;;;;9.40;7.87;;;;;;;;;;770061;183;816071;-76
2021/05/29 03:42:50;;;;;;;11.07;8.67;;;;;;;;;;764817;183;918408;-76
2021/05/29 03:45:16;;;;;;;10.73;8.73;;;;;;;;;;763906;183;918642;-77
2021/05/29 03:47:42;;;;;;;14.40;8.67;;;;;;;;;;763288;183;1248383;-73
2021/05/29 03:50:08;;;;;;;11.43;7.57;;;;;;;;;;766210;183;918277;-75
2021/05/29 03:52:34;;;;;;;11.93;8.93;;;;;;;;;;762779;183;919898;-75
2021/05/29 03:55:00;;;;;;;9.13;7.63;;;;;;;;;;766798;183;919424;-75
2021/05/29 03:57:25;;;;;;;11.77;8.90;;;;;;;;;;770353;183;817575;-76
2021/05/29 03:59:51;;;;;;;13.50;8.17;;;;;;;;;;764328;183;918520;-76
2021/05/29 04:02:17;;;;;;;12.37;9.48;;;;;;;;;;764543;182;1021484;-75
2021/05/29 04:04:43;;;;;;;10.75;8.20;;;;;;;;;;772507;183;916781;-76
2021/05/29 04:07:09;;;;;;;9.93;8.40;;;;;;;;;;766814;183;816718;-76
2021/05/29 04:09:37;;;;;;;15.27;9.10;;;;;;;;;;765345;183;919469;-76
2021/05/29 04:12:03;;;;;;;11.73;9.70;;;;;;;;;;768144;183;915515;-75
2021/05/29 04:14:29;;;;;;;12.37;8.07;;;;;;;;;;748385;187;810630;-76
2021/05/29 04:16:55;;;;;;;13.00;8.10;;;;;;;;;;766975;183;916295;-75
2021/05/29 04:19:20;;;;;;;10.07;8.23;;;;;;;;;;766601;180;885729;-77
2021/05/29 04:21:46;;;;;;;11.87;8.27;;;;;;;;;;773266;183;817623;-75
2021/05/29 04:24:12;;;;;;;9.13;7.20;;;;;;;;;;768328;183;813398;-76
2021/05/29 04:26:38;;;;;;;9.80;7.90;;;;;;;;;;766724;183;816373;-76
2021/05/29 04:29:04;;;;;;;11.97;8.13;;;;;;;;;;771403;183;912625;-76
2021/05/29 04:31:30;;;;;;;11.60;8.97;;;;;;;;;;766123;183;918960;-76
2021/05/29 04:33:55;;;;;;;13.83;8.30;;;;;;;;;;765857;183;918827;-76
2021/05/29 04:36:21;;;;;;;12.83;8.80;;;;;;;;;;772426;183;870447;-76
2021/05/29 04:38:47;;;;;;;15.83;8.47;;;;;;;;;;763936;183;915639;-76
2021/05/29 04:41:13;;;;;;;14.23;8.13;;;;;;;;;;763920;183;916359;-76
2021/05/29 04:43:39;;;;;;;12.60;9.70;;;;;;;;;;767702;183;812532;-76
2021/05/29 04:46:05;;;;;;;14.90;11.90;;;;;;;;;;769326;181;1003982;-76
2021/05/29 04:48:31;;;;;;;12.10;9.00;;;;;;;;;;766406;180;913808;-76
2021/05/29 04:53:28;;;;;;;12.13;8.20;;;;;;;;;;770427;183;917720;-76
2021/05/29 04:55:54;;;;;;;11.05;9.13;;;;;;;;;;764054;183;918965;-76
2021/05/29 04:58:20;;;;;;;9.33;7.87;;;;;;;;;;766508;183;816307;-77
2021/05/29 05:00:48;;;;;;;11.35;8.13;;;;;;;;;;765872;183;2363663;-75
2021/05/29 05:03:14;;;;;;;11.83;7.83;;;;;;;;;;757007;183;874399;-77
2021/05/29 05:05:39;;;;;;;11.03;8.40;;;;;;;;;;766337;183;915212;-77
2021/05/29 05:08:05;;;;;;;10.33;7.70;;;;;;;;;;762672;183;918785;-76
2021/05/29 05:10:31;;;;;;;12.13;7.70;;;;;;;;;;769637;183;918132;-77
2021/05/29 05:12:57;;;;;;;9.40;7.50;;;;;;;;;;766493;183;815793;-77
2021/05/29 05:15:23;;;;;;;8.03;6.07;;;;;;;;;;768462;182;1020124;-77
2021/05/29 05:17:49;;;;;;;9.68;7.18;;;;;;;;;;773123;183;903415;-77
2021/05/29 05:20:17;;;;;;;9.40;6.83;;;;;;;;;;761508;183;816337;-77
2021/05/29 05:22:40;;;;;;;9.07;6.65;;;;;;;;;;762255;184;917101;-78
2021/05/29 05:25:07;;;;;;;10.98;6.57;;;;;;;;;;748618;187;918978;-77
2021/05/29 05:27:33;;;;;;;11.43;6.90;;;;;;;;;;749272;187;816067;-78
2021/05/29 05:29:59;;;;;;;9.43;6.90;;;;;;;;;;747394;187;919319;-78
2021/05/29 05:32:25;;;;;;;8.60;6.67;;;;;;;;;;733467;191;818045;-78
2021/05/29 05:34:50;;;;;;;9.10;6.67;;;;;;;;;;771348;183;916700;-78
2021/05/29 05:37:16;;;;;;;8.13;5.97;;;;;;;;;;767537;183;816105;-78
2021/05/29 05:39:42;;;;;;;9.77;7.50;;;;;;;;;;760418;183;2227200;-78
2021/05/29 05:42:08;;;;;;;7.35;5.97;;;;;;;;;;771075;183;935564;-76
2021/05/29 05:44:34;;;;;;;8.43;6.60;;;;;;;;;;764731;183;1020469;-77
2021/05/29 05:47:00;;;;;;;9.07;6.70;;;;;;;;;;768466;183;815846;-77
2021/05/29 05:49:26;;;;;;;13.50;7.17;;;;;;;;;;771713;183;1000876;-78
2021/05/29 05:51:51;;;;;;;6.80;6.10;;;;;;;;;;764198;183;814500;-76
2021/05/29 05:54:17;;;;;;;8.00;6.53;;;;;;;;;;765658;183;820103;-75
2021/05/29 05:56:43;;;;;;;8.57;6.47;;;;;;;;;;769049;183;814471;-76
2021/05/29 05:59:09;;;;;;;7.90;6.78;;;;;;;;;;767376;183;932409;-79
2021/05/29 06:01:35;;;;;;;8.00;6.53;;;;;;;;;;767493;183;818056;-75
2021/05/29 06:04:01;;;;;;;7.37;5.53;;;;;;;;;;761823;183;925622;-76
2021/05/29 06:06:26;;;;;;;10.63;6.30;;;;;;;;;;767455;183;913367;-76
2021/05/29 06:08:52;;;;;;;8.53;7.03;;;;;;;;;;759904;183;932563;-76
2021/05/29 06:11:18;;;;;;;7.97;6.37;;;;;;;;;;764567;183;875456;-77
2021/05/29 06:21:37;;;;;;;9.97;6.30;;;;;;;;;;767065;183;916112;-76
2021/05/29 06:24:03;;;;;;;11.57;8.63;;;;;;;;;;766795;183;809935;-77
2021/05/29 06:26:29;;;;;;;10.50;6.63;;;;;;;;;;766794;182;924278;-77
2021/05/29 06:28:55;;;;;;;7.40;6.57;;;;;;;;;;772825;182;816092;-76
2021/05/29 06:31:21;;;;;;;10.53;6.87;;;;;;;;;;761475;183;911330;-77
2021/05/29 06:33:47;;;;;;;11.13;7.43;;;;;;;;;;737363;190;814734;-79
2021/05/29 06:36:12;;;;;;;11.70;7.13;;;;;;;;;;773925;183;623346;-76
2021/05/29 06:38:38;;;;;;;7.23;6.10;;;;;;;;;;766712;183;943476;-77
2021/05/29 06:41:04;;;;;;;8.55;6.37;;;;;;;;;;768643;183;873190;-78
2021/05/29 06:43:30;;;;;;;8.23;6.00;;;;;;;;;;771953;183;818692;-79
2021/05/29 06:45:56;;;;;;;8.27;5.27;;;;;;;;;;764634;183;992534;-78
2021/05/29 06:48:23;;;;;;;8.02;6.28;;;;;;;;;;769404;183;644864;-79
2021/05/29 06:50:53;;;;;;;8.27;6.00;;;;;;;;;;769702;183;724888;-77
2021/05/29 06:53:18;;;;;;;6.50;5.37;;;;;;;;;;766014;183;620276;-79
2021/05/29 07:00:43;;;;;;;9.57;5.20;;;;;;;;;;768929;183;616124;-77
2021/05/29 07:03:09;;;;;;;8.13;5.33;;;;;;;;;;775390;180;618629;-79
2021/05/29 07:05:35;;;;;;;7.90;6.40;;;;;;;;;;769235;183;632506;-80
2021/05/29 07:08:01;;;;;;;6.80;5.47;;;;;;;;;;767995;183;631109;-78
2021/05/29 07:10:27;;;;;;;6.80;5.93;;;;;;;;;;771893;183;654675;-78
2021/05/29 07:12:53;;;;;;;8.20;5.70;;;;;;;;;;765131;183;1494708;-79
2021/05/29 07:15:18;;;;;;;6.17;4.90;;;;;;;;;;768563;180;631411;-77
2021/05/29 07:17:46;;;;;;;7.60;5.37;;;;;;;;;;773434;183;618985;-80
2021/05/29 07:20:10;;;;;;;7.83;4.67;;;;;;;;;;768386;183;624252;-79
2021/05/29 07:22:36;;;;;;;6.70;5.23;;;;;;;;;;768733;183;634464;-78
2021/05/29 07:25:04;;;;;;;7.00;5.40;;;;;;;;;;771737;183;693789;-79
2021/05/29 07:27:30;;;;;;;8.07;4.80;;;;;;;;;;774097;183;636197;-79
2021/05/29 07:29:56;;;;;;;8.75;5.40;;;;;;;;;;768137;183;631223;-78
2021/05/29 07:32:22;;;;;;;8.20;5.00;;;;;;;;;;768956;183;641350;-76
2021/05/29 07:34:47;;;;;;;7.73;6.27;;;;;;;;;;773622;183;640874;-80
2021/05/29 07:37:13;;;;;;;7.10;5.60;;;;;;;;;;765221;182;645895;-80
2021/05/29 07:39:39;;;;;;;10.27;5.97;;;;;;;;;;770235;182;631442;-79
2021/05/29 07:42:05;;;;;;;7.00;5.70;;;;;;;;;;774813;183;629744;-77
2021/05/29 07:44:31;;;;;;;10.90;5.90;;;;;;;;;;769272;180;637970;-81
2021/05/29 07:46:57;;;;;;;8.03;6.47;;;;;;;;;;768636;183;635447;-80
2021/05/29 07:49:23;;;;;;;7.50;5.87;;;;;;;;;;773039;183;637797;-80
2021/05/29 07:51:48;;;;;;;12.63;6.10;;;;;;;;;;769291;183;627830;-78
2021/05/29 07:54:14;;;;;;;10.07;6.10;;;;;;;;;;770099;183;628722;-77
2021/05/29 07:56:40;;;;;;;8.77;7.00;;;;;;;;;;769482;183;648239;-75
2021/05/29 07:59:10;;;;;;;6.33;5.33;;;;;;;;;;773012;183;634779;-77
2021/05/29 08:01:33;;;;;;;7.90;5.60;;;;;;;;;;771024;183;628259;-78
2021/05/29 08:03:58;;;;;;;7.87;6.30;;;;;;;;;;770033;183;625395;-77
2021/05/29 08:06:26;;;;;;;7.60;6.80;;;;;;;;;;773151;183;628234;-77
2021/05/29 08:08:50;;;;;;;8.50;5.07;;;;;;;;;;767325;183;624640;-75
2021/05/29 08:11:21;;;;;;;7.00;5.20;;;;;;;;;;769910;183;688039;-78
2021/05/29 08:13:43;;;;;;;6.67;5.63;;;;;;;;;;771495;183;614334;-78
2021/05/29 08:16:09;;;;;;;9.80;5.93;;;;;;;;;;766244;183;637889;-77
2021/05/29 08:18:34;;;;;;;7.27;6.57;;;;;;;;;;769282;181;714548;-75
2021/05/29 08:21:00;;;;;;;8.90;6.80;;;;;;;;;;766601;183;816690;-78
2021/05/29 08:23:26;;;;;;;10.30;6.37;;;;;;;;;;771029;181;639645;-75
2021/05/29 08:25:52;;;;;;;7.57;5.87;;;;;;;;;;769379;183;639030;-72
2021/05/29 08:28:18;;;;;;;8.43;6.23;;;;;;;;;;768098;183;648919;-73
2021/05/29 08:30:44;;;;;;;13.57;6.93;;;;;;;;;;767912;183;919122;-76
2021/05/29 08:33:09;;;;;;;7.33;6.37;;;;;;;;;;769049;183;633709;-75
2021/05/29 08:35:35;;;;;;;8.67;5.83;;;;;;;;;;769412;183;624879;-77
2021/05/29 08:38:01;;;;;;;7.90;7.10;;;;;;;;;;771825;183;621785;-79
2021/05/29 08:40:27;;;;;;;6.83;6.23;;;;;;;;;;768319;179;772089;-77
2021/05/29 08:42:53;;;;;;;8.67;7.77;;;;;;;;;;767956;183;638346;-79
2021/05/29 08:45:20;;;;;;;11.30;8.47;;;;;;;;;;773352;181;645516;-79
2021/05/29 08:47:45;;;;;;;9.50;7.80;;;;;;;;;;769736;183;640740;-80
2021/05/29 08:50:12;;;;;;;8.93;7.50;;;;;;;;;;770187;181;633846;-78
2021/05/29 08:52:38;;;;;;;15.00;11.23;;;;;;;;;;768916;183;628810;-78
2021/05/29 08:55:05;;;;;;;17.13;11.10;;;;;;;;;;773200;183;637636;-79
2021/05/29 08:57:30;;;;;;;16.03;13.13;;;;;;;;;;769586;183;627922;-79
2021/05/29 08:59:56;;;;;;;13.90;9.63;;;;;;;;;;770187;183;665383;-76
2021/05/29 09:02:22;;;;;;;11.13;9.53;;;;;;;;;;772534;183;694396;-79
2021/05/29 09:04:54;;;;;;;8.00;7.30;;;;;;;;;;768257;183;640143;-76
2021/05/29 09:07:24;;;;;;;8.23;6.67;;;;;;;;;;769064;182;675710;-78
2021/05/29 09:09:49;;;;;;;8.33;6.23;;;;;;;;;;769616;183;637144;-77
2021/05/29 09:12:16;;;;;;;7.67;6.83;;;;;;;;;;770492;183;647824;-80
2021/05/29 09:14:41;;;;;;;7.80;6.63;;;;;;;;;;772616;180;637822;-77
2021/05/29 09:17:15;;;;;;;7.67;6.83;;;;;;;;;;768026;183;652377;-77
2021/05/29 09:19:45;;;;;;;9.20;7.10;;;;;;;;;;768256;183;625625;-76
2021/05/29 09:22:11;;;;;;;7.87;6.90;;;;;;;;;;773565;182;632838;-76
2021/05/29 09:24:37;;;;;;;8.30;6.40;;;;;;;;;;768283;183;633177;-73
2021/05/29 09:27:03;;;;;;;8.23;7.10;;;;;;;;;;768578;183;635629;-73
2021/05/29 09:29:29;;;;;;;9.43;7.43;;;;;;;;;;773618;183;616600;-73
2021/05/29 09:31:54;;;;;;;9.20;6.60;;;;;;;;;;767717;183;648688;-76
2021/05/29 09:34:26;;;;;;;20.60;7.80;;;;;;;;;;769029;183;634587;-77
2021/05/29 09:36:52;;;;;;;11.80;7.00;;;;;;;;;;768394;183;643209;-78
2021/05/29 09:39:19;;;;;;;8.17;7.13;;;;;;;;;;772245;183;662408;-79
2021/05/29 09:41:45;;;;;;;8.80;7.17;;;;;;;;;;768340;183;647232;-79
2021/05/29 09:44:12;;;;;;;8.57;6.53;;;;;;;;;;768201;183;658075;-78
2021/05/29 09:46:57;;;;;;;9.07;6.60;;;;;;;;;;771166;183;635515;-79
2021/05/29 09:49:27;;;;;;;8.00;7.00;;;;;;;;;;770176;180;632155;-78
2021/05/29 09:51:52;;;;;;;10.50;6.10;;;;;;;;;;772822;181;631340;-79
2021/05/29 09:54:18;;;;;;;8.83;6.73;;;;;;;;;;768201;183;664116;-78
2021/05/29 09:56:45;;;;;;;11.37;7.80;;;;;;;;;;768934;183;631005;-78
2021/05/29 09:59:13;;;;;;;9.53;7.83;;;;;;;;;;773601;183;626119;-78
2021/05/29 10:01:39;;;;;;;9.83;7.10;;;;;;;;;;771948;181;643853;-78
2021/05/29 10:04:04;;;;;;;14.90;10.60;;;;;;;;;;770402;183;655357;-79
2021/05/29 10:06:31;;;;;;;13.80;7.78;;;;;;;;;;773376;182;814386;-79
2021/05/29 10:08:57;;;;;;;9.93;6.83;;;;;;;;;;757344;184;816324;-77
2021/05/29 10:11:22;;;;;;;12.13;8.27;;;;;;;;;;764268;183;918621;-79
2021/05/29 10:13:48;;;;;;;9.43;7.60;;;;;;;;;;769176;183;640729;-78
2021/05/29 10:16:15;;;;;;;5.60;4.70;;;;;;;;;;774346;183;637662;-76
2021/05/29 10:18:40;;;;;;;10.17;4.27;;;;;;;;;;766577;183;635805;-74
2021/05/29 10:21:06;;;;;;;8.70;5.80;;;;;;;;;;768007;183;815894;-76
2021/05/29 10:23:32;;;;;;;4.40;3.30;;;;;;;;;;767667;183;900445;-76
2021/05/29 10:25:58;;;;;;;7.53;4.30;;;;;;;;;;765912;183;817000;-78
2021/05/29 10:28:23;;;;;;;5.70;3.80;;;;;;;;;;767029;183;910779;-77
2021/05/29 10:30:49;;;;;;;5.73;3.70;;;;;;;;;;770708;183;726203;-78
2021/05/29 10:33:15;;;;;;;5.67;4.70;;;;;;;;;;761422;183;822956;-79
2021/05/29 10:35:43;;;;;;;5.47;4.60;;;;;;;;;;767178;183;714474;-78
2021/05/29 10:38:07;;;;;;;9.50;4.60;;;;;;;;;;765636;183;919515;-77
2021/05/29 10:40:36;;;;;;;7.53;4.10;;;;;;;;;;774186;183;613782;-79
2021/05/29 10:43:07;;;;;;;5.37;4.07;;;;;;;;;;764187;183;918798;-78
2021/05/29 10:45:32;;;;;;;8.83;4.33;;;;;;;;;;764249;183;919332;-77
2021/05/29 10:48:00;;;;;;;4.00;3.10;;;;;;;;;;770051;183;917488;-79
2021/05/29 10:50:32;;;;;;;4.90;3.50;;;;;;;;;;767845;180;920099;-78
2021/05/29 10:52:57;;;;;;;6.17;2.90;;;;;;;;;;765276;183;820773;-75
2021/05/29 10:55:23;;;;;;;3.60;2.92;;;;;;;;;;765239;183;916836;-75
2021/05/29 10:57:51;;;;;;;5.83;3.13;;;;;;;;;;768879;183;919001;-76
2021/05/29 11:00:23;;;;;;;3.93;2.40;;;;;;;;;;769837;183;711888;-76
2021/05/29 11:02:49;;;;;;;7.67;2.80;;;;;;;;;;764021;183;918254;-77
2021/05/29 11:05:20;;;;;;;4.70;3.07;;;;;;;;;;758209;183;1604682;-74
2021/05/29 11:07:46;;;;;;;2.93;1.60;;;;;;;;;;768398;183;918896;-75
2021/05/29 11:10:12;;;;;;;2.63;1.83;;;;;;;;;;761476;183;1021816;-76
2021/05/29 11:12:39;;;;;;;11.90;2.43;;;;;;;;;;763174;181;923524;-75
2021/05/29 11:15:05;;;;;;;2.20;1.30;;;;;;;;;;766338;183;949930;-77
2021/05/29 11:17:31;;;;;;;2.63;1.30;;;;;;;;;;773584;181;653341;-77
2021/05/29 11:19:59;;;;;;;2.10;1.30;;;;;;;;;;768921;182;632120;-76
2021/05/29 11:22:25;;;;;;;3.40;2.37;;;;;;;;;;766922;182;878019;-77
2021/05/29 11:24:59;;;;;;;3.58;1.45;;;;;;;;;;771039;183;915582;-78
2021/05/29 11:27:24;;;;;;;3.70;1.83;;;;;;;;;;767726;183;830520;-77
2021/05/29 11:29:55;;;;;;;2.33;1.35;;;;;;;;;;767458;183;815360;-76
2021/05/29 11:32:27;;;;;;;2.40;1.33;;;;;;;;;;765695;183;915602;-76
2021/05/29 11:34:53;;;;;;;2.40;1.40;;;;;;;;;;770272;183;812761;-77
2021/05/29 11:37:18;;;;;;;12.17;5.80;;;;;;;;;;766532;183;812289;-76
2021/05/29 11:39:49;;;;;;;5.03;3.20;;;;;;;;;;768622;183;643175;-77
2021/05/29 11:42:15;;;;;;;3.10;1.83;;;;;;;;;;764495;183;1254852;-75
2021/05/29 11:44:41;;;;;;;3.40;1.90;;;;;;;;;;773551;183;848072;-77
2021/05/29 11:47:13;;;;;;;6.70;1.47;;;;;;;;;;764561;183;917190;-74
2021/05/29 11:49:39;;;;;;;2.50;1.40;;;;;;;;;;765371;183;920064;-76
2021/05/29 11:52:05;;;;;;;3.60;1.30;;;;;;;;;;767337;183;918738;-73
2021/05/29 11:54:31;;;;;;;1.90;1.10;;;;;;;;;;768904;183;918641;-73
2021/05/29 11:56:57;;;;;;;1.90;1.10;;;;;;;;;;765541;183;926468;-73
2021/05/29 11:59:22;;;;;;;3.00;1.73;;;;;;;;;;761726;183;932819;-74
2021/05/29 12:01:50;;;;;;;3.30;1.77;;;;;;;;;;769691;183;918182;-72
2021/05/29 12:04:16;;;;;;;2.17;1.53;;;;;;;;;;765685;183;919502;-75
2021/05/29 12:06:41;;;;;;;2.72;1.50;;;;;;;;;;765087;183;918510;-73
2021/05/29 12:09:07;;;;;;;3.00;1.83;;;;;;;;;;774451;183;621040;-73
2021/05/29 12:11:33;;;;;;;2.50;1.40;;;;;;;;;;768686;183;892630;-75
2021/05/29 12:14:02;;;;;;;4.77;2.17;;;;;;;;;;765611;183;934018;-75
2021/05/29 12:16:28;;;;;;;3.33;1.77;;;;;;;;;;766114;183;919989;-72
2021/05/29 12:18:54;;;;;;;3.47;1.80;;;;;;;;;;770612;183;816849;-75
2021/05/29 12:21:19;;;;;;;8.87;3.17;;;;;;;;;;761510;183;919167;-77
2021/05/29 12:23:50;;;;;;;4.20;2.93;;;;;;;;;;765788;182;921810;-73
2021/05/29 12:26:16;;;;;;;4.43;2.83;;;;;;;;;;772481;182;918598;-73
2021/05/29 12:28:42;;;;;;;3.37;2.13;;;;;;;;;;765736;179;896599;-74
2021/05/29 12:31:08;;;;;;;3.10;2.23;;;;;;;;;;764852;183;912587;-75
2021/05/29 12:33:34;;;;;;;3.40;2.25;;;;;;;;;;768781;180;813978;-75
2021/05/29 12:36:11;;;;;;;3.30;2.30;;;;;;;;;;768481;180;912075;-75
2021/05/29 12:38:36;;;;;;;2.30;1.50;;;;;;;;;;765504;183;911470;-76
2021/05/29 12:41:09;;;;;;;3.47;1.90;;;;;;;;;;766219;183;920144;-78
2021/05/29 12:43:34;;;;;;;2.20;1.23;;;;;;;;;;767544;183;859581;-74
2021/05/29 12:46:00;;;;;;;1.80;1.20;;;;;;;;;;769213;183;915712;-76
2021/05/29 12:48:25;;;;;;;2.73;1.60;;;;;;;;;;765814;183;919182;-75
2021/05/29 12:53:23;;;;;;;3.03;1.70;;;;;;;;;;769947;183;683478;-75
2021/05/29 12:55:49;;;;;;;6.45;2.70;;;;;;;;;;766242;183;918986;-74
2021/05/29 12:58:16;;;;;;;7.50;3.20;;;;;;;;;;762303;183;857060;-75
2021/05/29 13:01:12;;;;;;;8.97;4.73;;;;;;;;;;768432;183;618111;-76
2021/05/29 13:08:52;;;;;;;2.50;1.70;;;;;;;;;;771428;183;904579;-75
2021/05/29 13:11:01;;;;;;;3.20;1.93;;;;;;;;;;768215;183;633312;-76
2021/05/29 13:13:25;;;;;;;3.37;2.20;;;;;;;;;;768776;183;806862;-76
2021/05/29 13:16:02;;;;;;;2.67;1.67;;;;;;;;;;771772;183;768019;-74
2021/05/29 13:18:29;;;;;;;3.40;2.27;;;;;;;;;;766948;183;1021196;-75
2021/05/29 13:20:59;;;;;;;3.57;2.40;;;;;;;;;;764187;183;918024;-75
2021/05/29 13:23:25;;;;;;;2.97;2.50;;;;;;;;;;762240;183;918008;-76
2021/05/29 13:25:53;;;;;;;2.40;1.60;;;;;;;;;;771712;183;918949;-76
2021/05/29 13:28:17;;;;;;;3.37;2.20;;;;;;;;;;768358;183;919069;-76
2021/05/29 13:30:43;;;;;;;3.37;2.50;;;;;;;;;;764061;183;874053;-75
2021/05/29 13:33:10;;;;;;;3.47;2.10;;;;;;;;;;764006;183;918199;-75
2021/05/29 13:35:35;;;;;;;7.03;2.27;;;;;;;;;;771500;182;919293;-76
2021/05/29 13:38:02;;;;;;;3.70;1.80;;;;;;;;;;768607;183;875057;-74
2021/05/29 13:40:27;;;;;;;10.43;2.70;;;;;;;;;;768780;183;918691;-74
2021/05/29 13:42:53;;;;;;;3.00;2.10;;;;;;;;;;773938;183;918261;-75
2021/05/29 13:45:21;;;;;;;3.93;2.67;;;;;;;;;;766062;183;919673;-76
2021/05/29 13:47:45;;;;;;;4.40;2.10;;;;;;;;;;768855;183;919787;-75
2021/05/29 13:50:11;;;;;;;3.60;2.67;;;;;;;;;;773083;183;919738;-75
2021/05/29 13:52:37;;;;;;;2.70;2.13;;;;;;;;;;763579;183;919326;-74
2021/05/29 13:55:03;;;;;;;4.27;2.30;;;;;;;;;;766063;183;918687;-72
2021/05/29 13:57:29;;;;;;;3.10;2.47;;;;;;;;;;770200;183;906640;-72
2021/05/29 13:59:55;;;;;;;3.72;1.98;;;;;;;;;;766523;183;916949;-73
2021/05/29 14:02:20;;;;;;;4.20;2.00;;;;;;;;;;768127;183;918925;-73
2021/05/29 14:04:46;;;;;;;3.67;2.57;;;;;;;;;;762778;183;918614;-76
2021/05/29 14:07:15;;;;;;;3.90;2.27;;;;;;;;;;766939;183;816640;-74
2021/05/29 14:09:38;;;;;;;3.13;2.10;;;;;;;;;;766995;183;816766;-76
2021/05/29 14:12:04;;;;;;;3.97;2.27;;;;;;;;;;763326;183;918680;-76
2021/05/29 14:14:30;;;;;;;2.50;1.80;;;;;;;;;;769311;183;918195;-75
2021/05/29 14:16:56;;;;;;;7.03;2.43;;;;;;;;;;764271;183;919520;-75
2021/05/29 14:19:22;;;;;;;2.67;1.83;;;;;;;;;;768600;183;918784;-74
2021/05/29 14:21:48;;;;;;;2.60;1.50;;;;;;;;;;769527;183;801498;-75
2021/05/29 14:24:14;;;;;;;3.17;2.00;;;;;;;;;;764289;183;918477;-75
2021/05/29 14:26:40;;;;;;;2.53;1.80;;;;;;;;;;760109;183;919181;-77
2021/05/29 14:29:05;;;;;;;3.23;2.00;;;;;;;;;;765832;180;918159;-74
2021/05/29 14:31:31;;;;;;;3.60;1.80;;;;;;;;;;765619;184;816898;-73
2021/05/29 14:33:57;;;;;;;3.50;2.67;;;;;;;;;;760776;182;918851;-76
2021/05/29 14:36:24;;;;;;;5.43;2.60;;;;;;;;;;765767;183;919803;-75
2021/05/29 14:38:49;;;;;;;2.60;2.00;;;;;;;;;;770929;183;918614;-76
2021/05/29 14:41:15;;;;;;;3.73;2.53;;;;;;;;;;764248;183;919049;-76
2021/05/29 14:43:40;;;;;;;7.17;2.57;;;;;;;;;;766618;183;919656;-77